sensor_id;sensor_type;location;lat;lon;timestamp;P1;durP1;ratioP1;P2;durP2;ratioP2
51248;SDS011;39642;47.556;18.728;2023-08-31T00:00:11;7.12;;;2.08;;
51248;SDS011;39642;47.556;18.728;2023-08-31T00:02:39;7.78;;;2.25;;
51248;SDS011;39642;47.556;18.728;2023-08-31T00:05:06;6.47;;;2.00;;
51248;SDS011;39642;47.556;18.728;2023-08-31T00:07:32;5.90;;;1.90;;
51248;SDS011;39642;47.556;18.728;2023-08-31T00:09:58;6.32;;;1.90;;
51248;SDS011;39642;47.556;18.728;2023-08-31T00:12:24;6.57;;;2.12;;
51248;SDS011;39642;47.556;18.728;2023-08-31T00:14:51;7.50;;;2.12;;
51248;SDS011;39642;47.556;18.728;2023-08-31T00:17:17;6.30;;;2.10;;
51248;SDS011;39642;47.556;18.728;2023-08-31T00:19:43;6.47;;;2.10;;
51248;SDS011;39642;47.556;18.728;2023-08-31T00:22:09;6.25;;;2.00;;
51248;SDS011;39642;47.556;18.728;2023-08-31T00:24:35;6.82;;;2.12;;
51248;SDS011;39642;47.556;18.728;2023-08-31T00:27:02;6.10;;;2.00;;
51248;SDS011;39642;47.556;18.728;2023-08-31T00:29:29;7.25;;;2.10;;
51248;SDS011;39642;47.556;18.728;2023-08-31T00:31:56;6.25;;;2.00;;
51248;SDS011;39642;47.556;18.728;2023-08-31T00:34:22;6.43;;;2.00;;
51248;SDS011;39642;47.556;18.728;2023-08-31T00:36:48;5.30;;;2.00;;
51248;SDS011;39642;47.556;18.728;2023-08-31T00:39:14;5.82;;;2.00;;
51248;SDS011;39642;47.556;18.728;2023-08-31T00:41:40;6.18;;;2.17;;
51248;SDS011;39642;47.556;18.728;2023-08-31T00:44:06;6.30;;;1.80;;
51248;SDS011;39642;47.556;18.728;2023-08-31T00:46:32;6.55;;;2.10;;
51248;SDS011;39642;47.556;18.728;2023-08-31T00:49:00;5.65;;;1.90;;
51248;SDS011;39642;47.556;18.728;2023-08-31T00:51:26;7.05;;;2.10;;
51248;SDS011;39642;47.556;18.728;2023-08-31T00:53:52;6.25;;;2.05;;
51248;SDS011;39642;47.556;18.728;2023-08-31T00:56:21;7.43;;;2.15;;
51248;SDS011;39642;47.556;18.728;2023-08-31T00:58:47;5.97;;;1.95;;
51248;SDS011;39642;47.556;18.728;2023-08-31T01:04:07;6.37;;;2.00;;
51248;SDS011;39642;47.556;18.728;2023-08-31T01:12:46;5.78;;;1.85;;
51248;SDS011;39642;47.556;18.728;2023-08-31T01:15:17;5.27;;;2.10;;
51248;SDS011;39642;47.556;18.728;2023-08-31T01:17:46;6.30;;;2.00;;
51248;SDS011;39642;47.556;18.728;2023-08-31T01:20:19;6.45;;;2.00;;
51248;SDS011;39642;47.556;18.728;2023-08-31T01:23:11;6.12;;;2.10;;
51248;SDS011;39642;47.556;18.728;2023-08-31T01:25:41;5.70;;;1.90;;
51248;SDS011;39642;47.556;18.728;2023-08-31T01:28:08;7.75;;;2.03;;
51248;SDS011;39642;47.556;18.728;2023-08-31T01:30:35;5.30;;;1.80;;
51248;SDS011;39642;47.556;18.728;2023-08-31T01:33:01;6.70;;;2.00;;
51248;SDS011;39642;47.556;18.728;2023-08-31T01:35:28;5.65;;;1.90;;
51248;SDS011;39642;47.556;18.728;2023-08-31T01:37:59;5.00;;;1.80;;
51248;SDS011;39642;47.556;18.728;2023-08-31T01:43:30;6.03;;;1.95;;
51248;SDS011;39642;47.556;18.728;2023-08-31T01:45:57;5.45;;;1.77;;
51248;SDS011;39642;47.556;18.728;2023-08-31T01:48:24;5.87;;;1.90;;
51248;SDS011;39642;47.556;18.728;2023-08-31T01:50:49;6.50;;;1.95;;
51248;SDS011;39642;47.556;18.728;2023-08-31T01:53:15;6.15;;;2.00;;
51248;SDS011;39642;47.556;18.728;2023-08-31T01:55:41;5.30;;;1.80;;
51248;SDS011;39642;47.556;18.728;2023-08-31T01:58:07;5.80;;;1.90;;
51248;SDS011;39642;47.556;18.728;2023-08-31T02:00:33;5.20;;;1.80;;
51248;SDS011;39642;47.556;18.728;2023-08-31T02:03:01;7.32;;;2.00;;
51248;SDS011;39642;47.556;18.728;2023-08-31T02:05:27;6.50;;;2.00;;
51248;SDS011;39642;47.556;18.728;2023-08-31T02:07:53;7.32;;;2.05;;
51248;SDS011;39642;47.556;18.728;2023-08-31T02:10:19;7.25;;;2.03;;
51248;SDS011;39642;47.556;18.728;2023-08-31T02:12:44;5.40;;;1.83;;
51248;SDS011;39642;47.556;18.728;2023-08-31T02:15:10;5.53;;;1.90;;
51248;SDS011;39642;47.556;18.728;2023-08-31T02:17:36;4.60;;;1.60;;
51248;SDS011;39642;47.556;18.728;2023-08-31T02:20:02;6.28;;;1.90;;
51248;SDS011;39642;47.556;18.728;2023-08-31T02:22:33;7.07;;;2.00;;
51248;SDS011;39642;47.556;18.728;2023-08-31T02:25:00;7.45;;;2.12;;
51248;SDS011;39642;47.556;18.728;2023-08-31T02:27:26;5.78;;;2.00;;
51248;SDS011;39642;47.556;18.728;2023-08-31T02:29:52;4.28;;;1.70;;
51248;SDS011;39642;47.556;18.728;2023-08-31T02:32:19;5.03;;;1.83;;
51248;SDS011;39642;47.556;18.728;2023-08-31T02:34:45;5.87;;;1.90;;
51248;SDS011;39642;47.556;18.728;2023-08-31T02:37:11;5.93;;;2.00;;
51248;SDS011;39642;47.556;18.728;2023-08-31T02:39:37;6.47;;;2.00;;
51248;SDS011;39642;47.556;18.728;2023-08-31T02:42:03;5.43;;;2.03;;
51248;SDS011;39642;47.556;18.728;2023-08-31T02:44:31;5.47;;;1.85;;
51248;SDS011;39642;47.556;18.728;2023-08-31T02:46:57;6.18;;;1.95;;
51248;SDS011;39642;47.556;18.728;2023-08-31T02:49:23;5.32;;;1.83;;
51248;SDS011;39642;47.556;18.728;2023-08-31T02:51:49;5.03;;;1.90;;
51248;SDS011;39642;47.556;18.728;2023-08-31T02:54:15;5.97;;;1.85;;
51248;SDS011;39642;47.556;18.728;2023-08-31T02:56:41;4.55;;;1.70;;
51248;SDS011;39642;47.556;18.728;2023-08-31T02:59:07;5.68;;;1.75;;
51248;SDS011;39642;47.556;18.728;2023-08-31T03:01:33;5.03;;;1.80;;
51248;SDS011;39642;47.556;18.728;2023-08-31T03:03:59;8.25;;;2.05;;
51248;SDS011;39642;47.556;18.728;2023-08-31T03:06:25;6.18;;;1.98;;
51248;SDS011;39642;47.556;18.728;2023-08-31T03:08:51;5.20;;;1.70;;
51248;SDS011;39642;47.556;18.728;2023-08-31T03:11:17;5.75;;;1.80;;
51248;SDS011;39642;47.556;18.728;2023-08-31T03:13:43;6.50;;;1.92;;
51248;SDS011;39642;47.556;18.728;2023-08-31T03:16:09;5.87;;;2.00;;
51248;SDS011;39642;47.556;18.728;2023-08-31T03:18:34;5.20;;;1.80;;
51248;SDS011;39642;47.556;18.728;2023-08-31T03:21:00;5.15;;;1.90;;
51248;SDS011;39642;47.556;18.728;2023-08-31T03:23:26;6.45;;;2.05;;
51248;SDS011;39642;47.556;18.728;2023-08-31T03:25:53;4.72;;;1.73;;
51248;SDS011;39642;47.556;18.728;2023-08-31T03:28:20;5.72;;;1.80;;
51248;SDS011;39642;47.556;18.728;2023-08-31T03:30:46;5.28;;;2.12;;
51248;SDS011;39642;47.556;18.728;2023-08-31T03:33:19;4.45;;;1.70;;
51248;SDS011;39642;47.556;18.728;2023-08-31T03:35:45;5.90;;;1.87;;
51248;SDS011;39642;47.556;18.728;2023-08-31T03:38:11;4.70;;;1.80;;
51248;SDS011;39642;47.556;18.728;2023-08-31T03:40:37;5.95;;;2.00;;
51248;SDS011;39642;47.556;18.728;2023-08-31T03:43:03;5.72;;;1.92;;
51248;SDS011;39642;47.556;18.728;2023-08-31T03:45:29;5.93;;;1.90;;
51248;SDS011;39642;47.556;18.728;2023-08-31T03:47:55;5.90;;;1.80;;
51248;SDS011;39642;47.556;18.728;2023-08-31T03:50:21;5.85;;;1.95;;
51248;SDS011;39642;47.556;18.728;2023-08-31T03:52:46;5.82;;;1.87;;
51248;SDS011;39642;47.556;18.728;2023-08-31T03:55:12;5.07;;;2.00;;
51248;SDS011;39642;47.556;18.728;2023-08-31T03:57:38;5.90;;;1.80;;
51248;SDS011;39642;47.556;18.728;2023-08-31T04:00:04;5.93;;;1.77;;
51248;SDS011;39642;47.556;18.728;2023-08-31T04:02:38;7.30;;;1.92;;
51248;SDS011;39642;47.556;18.728;2023-08-31T04:05:04;5.93;;;1.90;;
51248;SDS011;39642;47.556;18.728;2023-08-31T04:07:32;5.95;;;1.80;;
51248;SDS011;39642;47.556;18.728;2023-08-31T04:09:59;5.43;;;1.90;;
51248;SDS011;39642;47.556;18.728;2023-08-31T04:12:25;5.03;;;1.73;;
51248;SDS011;39642;47.556;18.728;2023-08-31T04:14:51;6.70;;;1.90;;
51248;SDS011;39642;47.556;18.728;2023-08-31T04:17:17;5.82;;;1.80;;
51248;SDS011;39642;47.556;18.728;2023-08-31T04:19:43;7.00;;;1.95;;
51248;SDS011;39642;47.556;18.728;2023-08-31T04:22:09;4.85;;;1.90;;
51248;SDS011;39642;47.556;18.728;2023-08-31T04:24:35;5.78;;;1.90;;
51248;SDS011;39642;47.556;18.728;2023-08-31T04:27:00;6.07;;;1.90;;
51248;SDS011;39642;47.556;18.728;2023-08-31T04:29:26;7.28;;;1.98;;
51248;SDS011;39642;47.556;18.728;2023-08-31T04:31:52;5.12;;;1.80;;
51248;SDS011;39642;47.556;18.728;2023-08-31T04:34:19;4.72;;;1.80;;
51248;SDS011;39642;47.556;18.728;2023-08-31T04:36:45;5.00;;;1.70;;
51248;SDS011;39642;47.556;18.728;2023-08-31T04:39:11;4.95;;;1.80;;
51248;SDS011;39642;47.556;18.728;2023-08-31T04:41:37;6.70;;;1.90;;
51248;SDS011;39642;47.556;18.728;2023-08-31T04:44:03;6.05;;;1.90;;
51248;SDS011;39642;47.556;18.728;2023-08-31T04:46:29;8.05;;;2.00;;
51248;SDS011;39642;47.556;18.728;2023-08-31T04:48:55;6.80;;;2.05;;
51248;SDS011;39642;47.556;18.728;2023-08-31T04:51:36;5.10;;;1.80;;
51248;SDS011;39642;47.556;18.728;2023-08-31T04:54:07;6.40;;;2.00;;
51248;SDS011;39642;47.556;18.728;2023-08-31T04:56:33;5.85;;;2.00;;
51248;SDS011;39642;47.556;18.728;2023-08-31T04:58:59;5.18;;;2.00;;
51248;SDS011;39642;47.556;18.728;2023-08-31T05:01:25;7.20;;;2.08;;
51248;SDS011;39642;47.556;18.728;2023-08-31T05:03:51;5.35;;;1.80;;
51248;SDS011;39642;47.556;18.728;2023-08-31T05:06:17;4.87;;;1.80;;
51248;SDS011;39642;47.556;18.728;2023-08-31T05:08:43;5.93;;;2.08;;
51248;SDS011;39642;47.556;18.728;2023-08-31T05:11:09;5.55;;;1.95;;
51248;SDS011;39642;47.556;18.728;2023-08-31T05:13:35;6.65;;;2.03;;
51248;SDS011;39642;47.556;18.728;2023-08-31T05:16:01;5.80;;;1.90;;
51248;SDS011;39642;47.556;18.728;2023-08-31T05:18:28;5.37;;;1.80;;
51248;SDS011;39642;47.556;18.728;2023-08-31T05:20:54;6.72;;;1.90;;
51248;SDS011;39642;47.556;18.728;2023-08-31T05:23:20;5.07;;;1.80;;
51248;SDS011;39642;47.556;18.728;2023-08-31T05:25:46;6.70;;;1.92;;
51248;SDS011;39642;47.556;18.728;2023-08-31T05:28:11;6.90;;;1.90;;
51248;SDS011;39642;47.556;18.728;2023-08-31T05:30:47;6.78;;;1.90;;
51248;SDS011;39642;47.556;18.728;2023-08-31T05:33:14;6.90;;;1.98;;
51248;SDS011;39642;47.556;18.728;2023-08-31T05:35:40;6.85;;;1.98;;
51248;SDS011;39642;47.556;18.728;2023-08-31T05:38:06;6.00;;;1.92;;
51248;SDS011;39642;47.556;18.728;2023-08-31T05:40:32;6.50;;;2.10;;
51248;SDS011;39642;47.556;18.728;2023-08-31T05:42:58;6.30;;;2.00;;
51248;SDS011;39642;47.556;18.728;2023-08-31T05:45:24;9.20;;;2.15;;
51248;SDS011;39642;47.556;18.728;2023-08-31T05:47:49;6.95;;;2.10;;
51248;SDS011;39642;47.556;18.728;2023-08-31T05:50:15;11.82;;;2.42;;
51248;SDS011;39642;47.556;18.728;2023-08-31T05:52:41;8.80;;;2.45;;
51248;SDS011;39642;47.556;18.728;2023-08-31T05:55:09;7.62;;;2.30;;
51248;SDS011;39642;47.556;18.728;2023-08-31T05:57:36;6.37;;;2.00;;
51248;SDS011;39642;47.556;18.728;2023-08-31T06:00:03;10.68;;;2.37;;
51248;SDS011;39642;47.556;18.728;2023-08-31T06:02:32;8.20;;;2.00;;
51248;SDS011;39642;47.556;18.728;2023-08-31T06:04:58;8.35;;;2.25;;
51248;SDS011;39642;47.556;18.728;2023-08-31T06:07:24;9.35;;;2.40;;
51248;SDS011;39642;47.556;18.728;2023-08-31T06:09:50;8.90;;;2.00;;
51248;SDS011;39642;47.556;18.728;2023-08-31T06:12:16;6.82;;;2.15;;
51248;SDS011;39642;47.556;18.728;2023-08-31T06:14:42;7.00;;;2.10;;
51248;SDS011;39642;47.556;18.728;2023-08-31T06:17:07;9.48;;;2.25;;
51248;SDS011;39642;47.556;18.728;2023-08-31T06:19:34;7.43;;;2.20;;
51248;SDS011;39642;47.556;18.728;2023-08-31T06:22:01;7.80;;;2.33;;
51248;SDS011;39642;47.556;18.728;2023-08-31T06:24:28;7.12;;;2.20;;
51248;SDS011;39642;47.556;18.728;2023-08-31T06:26:54;8.73;;;2.30;;
51248;SDS011;39642;47.556;18.728;2023-08-31T06:29:22;8.80;;;2.35;;
51248;SDS011;39642;47.556;18.728;2023-08-31T06:31:48;9.10;;;2.35;;
51248;SDS011;39642;47.556;18.728;2023-08-31T06:34:14;7.35;;;2.30;;
51248;SDS011;39642;47.556;18.728;2023-08-31T06:36:39;7.37;;;2.20;;
51248;SDS011;39642;47.556;18.728;2023-08-31T06:39:06;7.82;;;2.28;;
51248;SDS011;39642;47.556;18.728;2023-08-31T06:41:33;7.75;;;2.25;;
51248;SDS011;39642;47.556;18.728;2023-08-31T06:44:02;10.20;;;2.30;;
51248;SDS011;39642;47.556;18.728;2023-08-31T06:46:30;6.87;;;2.28;;
51248;SDS011;39642;47.556;18.728;2023-08-31T06:48:59;7.75;;;2.50;;
51248;SDS011;39642;47.556;18.728;2023-08-31T06:51:25;9.50;;;2.10;;
51248;SDS011;39642;47.556;18.728;2023-08-31T06:53:51;7.30;;;2.00;;
51248;SDS011;39642;47.556;18.728;2023-08-31T06:56:18;8.43;;;2.55;;
51248;SDS011;39642;47.556;18.728;2023-08-31T06:58:44;10.10;;;2.70;;
51248;SDS011;39642;47.556;18.728;2023-08-31T07:01:11;7.65;;;2.35;;
51248;SDS011;39642;47.556;18.728;2023-08-31T07:03:38;9.90;;;2.53;;
51248;SDS011;39642;47.556;18.728;2023-08-31T07:06:04;12.40;;;2.60;;
51248;SDS011;39642;47.556;18.728;2023-08-31T07:08:30;9.90;;;2.45;;
51248;SDS011;39642;47.556;18.728;2023-08-31T07:10:56;7.75;;;2.53;;
51248;SDS011;39642;47.556;18.728;2023-08-31T07:13:22;11.18;;;2.65;;
51248;SDS011;39642;47.556;18.728;2023-08-31T07:15:47;12.15;;;2.60;;
51248;SDS011;39642;47.556;18.728;2023-08-31T07:18:15;9.77;;;2.50;;
51248;SDS011;39642;47.556;18.728;2023-08-31T07:20:41;11.55;;;2.90;;
51248;SDS011;39642;47.556;18.728;2023-08-31T07:23:07;10.45;;;2.30;;
51248;SDS011;39642;47.556;18.728;2023-08-31T07:25:33;9.43;;;2.60;;
51248;SDS011;39642;47.556;18.728;2023-08-31T07:27:58;7.95;;;2.35;;
51248;SDS011;39642;47.556;18.728;2023-08-31T07:30:24;9.82;;;2.37;;
51248;SDS011;39642;47.556;18.728;2023-08-31T07:32:50;9.68;;;2.40;;
51248;SDS011;39642;47.556;18.728;2023-08-31T07:35:16;8.13;;;2.60;;
51248;SDS011;39642;47.556;18.728;2023-08-31T07:37:42;7.37;;;2.47;;
51248;SDS011;39642;47.556;18.728;2023-08-31T07:40:08;9.73;;;2.45;;
51248;SDS011;39642;47.556;18.728;2023-08-31T07:42:35;10.45;;;2.60;;
51248;SDS011;39642;47.556;18.728;2023-08-31T07:45:01;13.07;;;2.97;;
51248;SDS011;39642;47.556;18.728;2023-08-31T07:47:27;10.50;;;2.70;;
51248;SDS011;39642;47.556;18.728;2023-08-31T07:49:53;10.93;;;2.85;;
51248;SDS011;39642;47.556;18.728;2023-08-31T07:52:19;9.40;;;3.60;;
51248;SDS011;39642;47.556;18.728;2023-08-31T07:54:45;10.57;;;3.45;;
51248;SDS011;39642;47.556;18.728;2023-08-31T07:57:11;13.62;;;3.30;;
51248;SDS011;39642;47.556;18.728;2023-08-31T07:59:37;8.38;;;2.97;;
51248;SDS011;39642;47.556;18.728;2023-08-31T08:02:08;9.52;;;2.70;;
51248;SDS011;39642;47.556;18.728;2023-08-31T08:04:33;11.10;;;3.90;;
51248;SDS011;39642;47.556;18.728;2023-08-31T08:07:00;9.30;;;2.70;;
51248;SDS011;39642;47.556;18.728;2023-08-31T08:09:26;11.05;;;3.20;;
51248;SDS011;39642;47.556;18.728;2023-08-31T08:11:52;8.27;;;2.87;;
51248;SDS011;39642;47.556;18.728;2023-08-31T08:14:18;10.30;;;3.08;;
51248;SDS011;39642;47.556;18.728;2023-08-31T08:16:44;10.35;;;3.08;;
51248;SDS011;39642;47.556;18.728;2023-08-31T08:19:10;11.10;;;3.03;;
51248;SDS011;39642;47.556;18.728;2023-08-31T08:21:36;7.70;;;2.60;;
51248;SDS011;39642;47.556;18.728;2023-08-31T08:24:02;10.52;;;3.03;;
51248;SDS011;39642;47.556;18.728;2023-08-31T08:26:28;10.23;;;2.53;;
51248;SDS011;39642;47.556;18.728;2023-08-31T08:28:54;18.50;;;3.28;;
51248;SDS011;39642;47.556;18.728;2023-08-31T08:31:20;9.40;;;2.50;;
51248;SDS011;39642;47.556;18.728;2023-08-31T08:33:46;8.45;;;2.45;;
51248;SDS011;39642;47.556;18.728;2023-08-31T08:36:12;8.63;;;2.62;;
51248;SDS011;39642;47.556;18.728;2023-08-31T08:38:38;8.38;;;2.60;;
51248;SDS011;39642;47.556;18.728;2023-08-31T08:41:04;9.43;;;2.70;;
51248;SDS011;39642;47.556;18.728;2023-08-31T08:43:31;9.93;;;2.62;;
51248;SDS011;39642;47.556;18.728;2023-08-31T08:46:01;8.25;;;2.42;;
51248;SDS011;39642;47.556;18.728;2023-08-31T08:48:31;8.60;;;2.70;;
51248;SDS011;39642;47.556;18.728;2023-08-31T08:50:59;9.80;;;2.70;;
51248;SDS011;39642;47.556;18.728;2023-08-31T08:53:25;7.68;;;2.50;;
51248;SDS011;39642;47.556;18.728;2023-08-31T08:55:51;6.05;;;2.20;;
51248;SDS011;39642;47.556;18.728;2023-08-31T08:58:17;7.93;;;2.42;;
51248;SDS011;39642;47.556;18.728;2023-08-31T09:00:43;8.88;;;2.50;;
51248;SDS011;39642;47.556;18.728;2023-08-31T09:03:09;9.07;;;2.53;;
51248;SDS011;39642;47.556;18.728;2023-08-31T09:05:35;9.55;;;2.70;;
51248;SDS011;39642;47.556;18.728;2023-08-31T09:08:05;11.07;;;2.45;;
51248;SDS011;39642;47.556;18.728;2023-08-31T09:10:36;10.35;;;2.75;;
51248;SDS011;39642;47.556;18.728;2023-08-31T09:13:11;10.25;;;2.70;;
51248;SDS011;39642;47.556;18.728;2023-08-31T09:20:54;12.15;;;2.75;;
51248;SDS011;39642;47.556;18.728;2023-08-31T09:23:24;11.25;;;2.72;;
51248;SDS011;39642;47.556;18.728;2023-08-31T09:25:51;12.52;;;2.78;;
51248;SDS011;39642;47.556;18.728;2023-08-31T09:28:20;16.25;;;3.25;;
51248;SDS011;39642;47.556;18.728;2023-08-31T09:30:47;33.78;;;4.40;;
51248;SDS011;39642;47.556;18.728;2023-08-31T09:33:14;13.30;;;3.25;;
51248;SDS011;39642;47.556;18.728;2023-08-31T09:36:07;21.15;;;3.78;;
51248;SDS011;39642;47.556;18.728;2023-08-31T09:38:40;17.02;;;2.67;;
51248;SDS011;39642;47.556;18.728;2023-08-31T09:41:07;9.77;;;2.67;;
51248;SDS011;39642;47.556;18.728;2023-08-31T09:43:32;10.45;;;2.60;;
51248;SDS011;39642;47.556;18.728;2023-08-31T09:45:59;9.32;;;2.50;;
51248;SDS011;39642;47.556;18.728;2023-08-31T09:48:26;10.93;;;2.42;;
51248;SDS011;39642;47.556;18.728;2023-08-31T09:50:52;10.32;;;2.50;;
51248;SDS011;39642;47.556;18.728;2023-08-31T09:53:20;10.60;;;2.42;;
51248;SDS011;39642;47.556;18.728;2023-08-31T09:55:47;8.93;;;2.60;;
51248;SDS011;39642;47.556;18.728;2023-08-31T09:58:19;8.38;;;2.30;;
51248;SDS011;39642;47.556;18.728;2023-08-31T10:00:51;9.57;;;2.33;;
51248;SDS011;39642;47.556;18.728;2023-08-31T10:03:18;9.18;;;2.53;;
51248;SDS011;39642;47.556;18.728;2023-08-31T10:05:46;10.68;;;2.17;;
51248;SDS011;39642;47.556;18.728;2023-08-31T10:08:13;8.93;;;2.47;;
51248;SDS011;39642;47.556;18.728;2023-08-31T10:10:40;10.00;;;2.65;;
51248;SDS011;39642;47.556;18.728;2023-08-31T10:13:06;9.45;;;2.20;;
51248;SDS011;39642;47.556;18.728;2023-08-31T10:15:34;7.22;;;2.37;;
51248;SDS011;39642;47.556;18.728;2023-08-31T10:18:02;6.82;;;2.10;;
51248;SDS011;39642;47.556;18.728;2023-08-31T10:20:29;10.60;;;2.25;;
51248;SDS011;39642;47.556;18.728;2023-08-31T10:23:05;8.27;;;2.28;;
51248;SDS011;39642;47.556;18.728;2023-08-31T10:28:19;8.30;;;2.20;;
51248;SDS011;39642;47.556;18.728;2023-08-31T10:33:30;9.10;;;2.42;;
51248;SDS011;39642;47.556;18.728;2023-08-31T10:36:14;7.68;;;2.20;;
51248;SDS011;39642;47.556;18.728;2023-08-31T10:38:45;6.95;;;2.20;;
51248;SDS011;39642;47.556;18.728;2023-08-31T10:41:25;8.57;;;2.30;;
51248;SDS011;39642;47.556;18.728;2023-08-31T10:43:57;8.43;;;2.50;;
51248;SDS011;39642;47.556;18.728;2023-08-31T10:46:30;9.52;;;2.58;;
51248;SDS011;39642;47.556;18.728;2023-08-31T10:49:00;9.10;;;2.30;;
51248;SDS011;39642;47.556;18.728;2023-08-31T10:51:29;9.25;;;2.60;;
51248;SDS011;39642;47.556;18.728;2023-08-31T10:54:06;10.65;;;2.60;;
51248;SDS011;39642;47.556;18.728;2023-08-31T10:59:23;11.43;;;2.50;;
51248;SDS011;39642;47.556;18.728;2023-08-31T11:01:54;11.50;;;3.12;;
51248;SDS011;39642;47.556;18.728;2023-08-31T11:04:24;11.75;;;3.00;;
51248;SDS011;39642;47.556;18.728;2023-08-31T11:07:26;10.70;;;2.47;;
51248;SDS011;39642;47.556;18.728;2023-08-31T11:09:45;9.60;;;2.62;;
51248;SDS011;39642;47.556;18.728;2023-08-31T11:12:12;9.18;;;2.60;;
51248;SDS011;39642;47.556;18.728;2023-08-31T11:14:38;8.10;;;2.45;;
51248;SDS011;39642;47.556;18.728;2023-08-31T11:17:05;12.65;;;2.67;;
51248;SDS011;39642;47.556;18.728;2023-08-31T11:19:31;9.43;;;2.40;;
51248;SDS011;39642;47.556;18.728;2023-08-31T11:21:59;9.43;;;2.75;;
51248;SDS011;39642;47.556;18.728;2023-08-31T11:24:27;9.57;;;2.60;;
51248;SDS011;39642;47.556;18.728;2023-08-31T11:26:54;8.60;;;2.65;;
51248;SDS011;39642;47.556;18.728;2023-08-31T11:29:21;8.80;;;2.67;;
51248;SDS011;39642;47.556;18.728;2023-08-31T11:31:47;10.25;;;2.90;;
51248;SDS011;39642;47.556;18.728;2023-08-31T11:34:13;8.73;;;2.72;;
51248;SDS011;39642;47.556;18.728;2023-08-31T11:36:41;9.68;;;2.80;;
51248;SDS011;39642;47.556;18.728;2023-08-31T11:39:08;11.60;;;2.65;;
51248;SDS011;39642;47.556;18.728;2023-08-31T11:41:35;9.48;;;2.70;;
51248;SDS011;39642;47.556;18.728;2023-08-31T11:44:11;10.30;;;2.70;;
51248;SDS011;39642;47.556;18.728;2023-08-31T11:46:39;9.57;;;2.60;;
51248;SDS011;39642;47.556;18.728;2023-08-31T11:49:07;9.15;;;2.60;;
51248;SDS011;39642;47.556;18.728;2023-08-31T11:51:34;8.18;;;2.83;;
51248;SDS011;39642;47.556;18.728;2023-08-31T11:54:03;9.77;;;2.85;;
51248;SDS011;39642;47.556;18.728;2023-08-31T11:56:38;9.55;;;2.90;;
51248;SDS011;39642;47.556;18.728;2023-08-31T11:59:17;9.88;;;2.62;;
51248;SDS011;39642;47.556;18.728;2023-08-31T12:01:48;10.18;;;2.78;;
51248;SDS011;39642;47.556;18.728;2023-08-31T12:04:21;7.70;;;2.70;;
51248;SDS011;39642;47.556;18.728;2023-08-31T12:06:51;8.90;;;2.53;;
51248;SDS011;39642;47.556;18.728;2023-08-31T12:09:21;8.55;;;2.47;;
51248;SDS011;39642;47.556;18.728;2023-08-31T12:11:50;6.97;;;2.58;;
51248;SDS011;39642;47.556;18.728;2023-08-31T12:14:20;8.30;;;2.75;;
51248;SDS011;39642;47.556;18.728;2023-08-31T12:16:49;7.97;;;2.60;;
51248;SDS011;39642;47.556;18.728;2023-08-31T12:19:16;8.77;;;2.70;;
51248;SDS011;39642;47.556;18.728;2023-08-31T12:21:43;7.57;;;2.30;;
51248;SDS011;39642;47.556;18.728;2023-08-31T12:24:10;8.82;;;2.53;;
51248;SDS011;39642;47.556;18.728;2023-08-31T12:26:36;8.55;;;2.47;;
51248;SDS011;39642;47.556;18.728;2023-08-31T12:29:03;7.25;;;2.33;;
51248;SDS011;39642;47.556;18.728;2023-08-31T12:31:32;7.57;;;2.40;;
51248;SDS011;39642;47.556;18.728;2023-08-31T12:33:59;7.55;;;2.30;;
51248;SDS011;39642;47.556;18.728;2023-08-31T12:36:26;8.68;;;2.40;;
51248;SDS011;39642;47.556;18.728;2023-08-31T12:38:51;7.20;;;2.37;;
51248;SDS011;39642;47.556;18.728;2023-08-31T12:41:17;7.25;;;2.47;;
51248;SDS011;39642;47.556;18.728;2023-08-31T12:43:45;8.38;;;2.50;;
51248;SDS011;39642;47.556;18.728;2023-08-31T12:46:11;8.57;;;2.47;;
51248;SDS011;39642;47.556;18.728;2023-08-31T12:48:39;6.70;;;2.20;;
51248;SDS011;39642;47.556;18.728;2023-08-31T12:51:05;9.07;;;2.50;;
51248;SDS011;39642;47.556;18.728;2023-08-31T12:53:31;7.37;;;2.20;;
51248;SDS011;39642;47.556;18.728;2023-08-31T12:55:57;7.43;;;2.53;;
51248;SDS011;39642;47.556;18.728;2023-08-31T12:58:23;7.62;;;2.45;;
51248;SDS011;39642;47.556;18.728;2023-08-31T13:00:49;7.80;;;2.35;;
51248;SDS011;39642;47.556;18.728;2023-08-31T13:03:16;7.65;;;2.28;;
51248;SDS011;39642;47.556;18.728;2023-08-31T13:05:41;7.87;;;2.50;;
51248;SDS011;39642;47.556;18.728;2023-08-31T13:08:08;7.55;;;2.30;;
51248;SDS011;39642;47.556;18.728;2023-08-31T13:10:34;6.93;;;2.37;;
51248;SDS011;39642;47.556;18.728;2023-08-31T13:13:00;8.38;;;2.30;;
51248;SDS011;39642;47.556;18.728;2023-08-31T13:15:26;8.50;;;2.20;;
51248;SDS011;39642;47.556;18.728;2023-08-31T13:17:52;7.62;;;2.30;;
51248;SDS011;39642;47.556;18.728;2023-08-31T13:20:18;7.20;;;2.45;;
51248;SDS011;39642;47.556;18.728;2023-08-31T13:22:44;8.32;;;2.50;;
51248;SDS011;39642;47.556;18.728;2023-08-31T13:25:10;7.97;;;2.22;;
51248;SDS011;39642;47.556;18.728;2023-08-31T13:27:37;9.45;;;2.37;;
51248;SDS011;39642;47.556;18.728;2023-08-31T13:30:03;7.68;;;2.20;;
51248;SDS011;39642;47.556;18.728;2023-08-31T13:32:35;7.30;;;2.17;;
51248;SDS011;39642;47.556;18.728;2023-08-31T13:35:00;7.25;;;2.30;;
51248;SDS011;39642;47.556;18.728;2023-08-31T13:37:26;7.43;;;2.22;;
51248;SDS011;39642;47.556;18.728;2023-08-31T13:39:52;8.27;;;2.60;;
51248;SDS011;39642;47.556;18.728;2023-08-31T13:42:20;8.02;;;2.40;;
51248;SDS011;39642;47.556;18.728;2023-08-31T13:44:46;7.50;;;2.30;;
51248;SDS011;39642;47.556;18.728;2023-08-31T13:47:12;7.65;;;2.30;;
51248;SDS011;39642;47.556;18.728;2023-08-31T13:49:38;9.65;;;2.33;;
51248;SDS011;39642;47.556;18.728;2023-08-31T13:52:04;7.37;;;2.10;;
51248;SDS011;39642;47.556;18.728;2023-08-31T13:54:31;7.87;;;2.37;;
51248;SDS011;39642;47.556;18.728;2023-08-31T13:56:59;6.32;;;2.30;;
51248;SDS011;39642;47.556;18.728;2023-08-31T13:59:25;7.50;;;2.30;;
51248;SDS011;39642;47.556;18.728;2023-08-31T14:01:53;7.35;;;2.35;;
51248;SDS011;39642;47.556;18.728;2023-08-31T14:04:19;8.07;;;2.45;;
51248;SDS011;39642;47.556;18.728;2023-08-31T14:06:47;7.85;;;2.33;;
51248;SDS011;39642;47.556;18.728;2023-08-31T14:09:14;7.62;;;2.20;;
51248;SDS011;39642;47.556;18.728;2023-08-31T14:11:40;8.15;;;2.40;;
51248;SDS011;39642;47.556;18.728;2023-08-31T14:14:06;9.10;;;2.58;;
51248;SDS011;39642;47.556;18.728;2023-08-31T14:16:36;7.70;;;2.22;;
51248;SDS011;39642;47.556;18.728;2023-08-31T14:19:03;7.78;;;2.30;;
51248;SDS011;39642;47.556;18.728;2023-08-31T14:21:29;12.80;;;2.70;;
51248;SDS011;39642;47.556;18.728;2023-08-31T14:23:56;7.72;;;2.10;;
51248;SDS011;39642;47.556;18.728;2023-08-31T14:26:24;9.15;;;2.35;;
51248;SDS011;39642;47.556;18.728;2023-08-31T14:28:51;7.72;;;2.42;;
51248;SDS011;39642;47.556;18.728;2023-08-31T14:31:18;9.57;;;2.50;;
51248;SDS011;39642;47.556;18.728;2023-08-31T14:33:44;7.62;;;2.08;;
51248;SDS011;39642;47.556;18.728;2023-08-31T14:36:10;8.60;;;2.28;;
51248;SDS011;39642;47.556;18.728;2023-08-31T14:38:37;8.63;;;2.35;;
51248;SDS011;39642;47.556;18.728;2023-08-31T14:41:02;8.75;;;2.30;;
51248;SDS011;39642;47.556;18.728;2023-08-31T14:43:29;9.00;;;2.33;;
51248;SDS011;39642;47.556;18.728;2023-08-31T14:45:55;8.27;;;2.30;;
51248;SDS011;39642;47.556;18.728;2023-08-31T14:48:21;7.75;;;2.20;;
51248;SDS011;39642;47.556;18.728;2023-08-31T14:50:49;8.95;;;2.47;;
51248;SDS011;39642;47.556;18.728;2023-08-31T14:53:15;7.32;;;2.15;;
51248;SDS011;39642;47.556;18.728;2023-08-31T14:55:41;9.10;;;2.30;;
51248;SDS011;39642;47.556;18.728;2023-08-31T14:58:13;9.18;;;2.20;;